Time;durP1;ratioP1;P1;durP2;ratioP2;P2;SDS_P1;SDS_P2;PMS_P1;PMS_P2;Temp;Humidity;BMP_temperature;BMP_pressure;BME280_temperature;BME280_humidity;BME280_pressure;Samples;Min_cycle;Max_cycle;Signal;HPM_P1;HPM_P2
2023/09/06 00:02:25;;;;;;;66.93;48.58;;;19.20;99.90;;;;;;4756784;30;20401;-74
2023/09/06 00:04:51;;;;;;;60.60;45.28;;;19.20;99.90;;;;;;4756732;30;20090;-73
2023/09/06 00:07:16;;;;;;;62.92;45.83;;;19.20;99.90;;;;;;4756819;30;20087;-74
2023/09/06 00:09:43;;;;;;;59.22;44.00;;;19.20;99.90;;;;;;4756162;30;20512;-74
2023/09/06 00:12:08;;;;;;;63.00;44.83;;;19.20;99.90;;;;;;4772705;30;20052;-74
2023/09/06 00:14:36;;;;;;;69.78;45.67;;;19.20;99.90;;;;;;4756404;30;20054;-74
2023/09/06 00:17:03;;;;;;;63.00;44.13;;;19.20;99.90;;;;;;4772573;30;20082;-74
2023/09/06 00:19:29;;;;;;;65.22;46.25;;;19.10;99.90;;;;;;4772290;30;20102;-74
2023/09/06 00:21:55;;;;;;;60.67;44.00;;;19.10;99.90;;;;;;4756436;30;20083;-73
2023/09/06 00:24:20;;;;;;;63.63;44.50;;;19.20;99.90;;;;;;4756359;30;20089;-74
2023/09/06 00:26:46;;;;;;;64.13;44.88;;;19.10;99.90;;;;;;4772457;30;20075;-74
2023/09/06 00:29:12;;;;;;;62.38;43.75;;;19.20;99.90;;;;;;4772183;30;20048;-74
2023/09/06 00:31:37;;;;;;;63.42;44.13;;;19.20;99.90;;;;;;4756571;30;20489;-74
2023/09/06 00:34:03;;;;;;;62.22;44.42;;;19.10;99.90;;;;;;4756277;30;20052;-74
2023/09/06 00:36:29;;;;;;;61.08;44.00;;;19.10;99.90;;;;;;4771920;30;20048;-74
2023/09/06 00:38:59;;;;;;;65.57;43.63;;;19.00;99.90;;;;;;4756602;30;20059;-74
2023/09/06 00:41:26;;;;;;;61.22;42.85;;;19.00;99.90;;;;;;4756373;30;20126;-74
2023/09/06 00:43:52;;;;;;;62.55;44.60;;;19.10;99.90;;;;;;4756127;30;20059;-73
2023/09/06 00:46:21;;;;;;;63.08;47.15;;;19.10;99.90;;;;;;4756050;30;20043;-73
2023/09/06 00:48:50;;;;;;;59.05;42.65;;;19.10;99.90;;;;;;4755987;30;20059;-74
2023/09/06 00:51:17;;;;;;;67.82;46.78;;;19.00;99.90;;;;;;4755850;30;20493;-74
2023/09/06 00:53:43;;;;;;;61.30;44.80;;;19.00;99.90;;;;;;4756075;30;20060;-73
2023/09/06 00:56:09;;;;;;;62.70;44.13;;;18.90;99.90;;;;;;4755840;30;20051;-74
2023/09/06 00:58:36;;;;;;;65.60;46.10;;;18.90;99.90;;;;;;4756053;30;20059;-74
2023/09/06 01:01:06;;;;;;;61.90;43.45;;;18.90;99.90;;;;;;4755851;30;20550;-73
2023/09/06 01:03:32;;;;;;;61.75;45.00;;;18.90;99.90;;;;;;4755020;30;20056;-73
2023/09/06 01:06:04;;;;;;;65.00;46.47;;;18.90;99.90;;;;;;4755867;30;20067;-74
2023/09/06 01:08:45;;;;;;;66.47;48.17;;;18.90;99.90;;;;;;4755917;30;20051;-74
2023/09/06 01:11:21;;;;;;;61.35;44.70;;;18.90;99.90;;;;;;4755320;30;20302;-74
2023/09/06 01:13:52;;;;;;;64.90;45.70;;;18.90;99.90;;;;;;4755624;30;20071;-73
2023/09/06 01:16:41;;;;;;;59.78;43.65;;;18.90;99.90;;;;;;4755635;30;20128;-74
2023/09/06 01:19:11;;;;;;;61.03;44.53;;;18.80;99.90;;;;;;4755505;30;20117;-74
2023/09/06 01:21:49;;;;;;;57.97;42.88;;;18.80;99.90;;;;;;4755235;30;20093;-74
2023/09/06 01:24:16;;;;;;;57.67;42.70;;;18.80;99.90;;;;;;4755551;30;20056;-74
2023/09/06 01:26:42;;;;;;;55.20;40.55;;;18.70;99.90;;;;;;4771353;30;20043;-73
2023/09/06 01:29:08;;;;;;;56.28;41.03;;;18.80;99.90;;;;;;4755216;30;20047;-74
2023/09/06 01:31:34;;;;;;;52.80;39.42;;;18.80;99.90;;;;;;4771172;30;20122;-73
2023/09/06 01:33:59;;;;;;;49.33;37.90;;;18.70;99.90;;;;;;4755328;30;20131;-74
2023/09/06 01:36:25;;;;;;;53.78;39.15;;;18.70;99.90;;;;;;4755146;30;20515;-74
2023/09/06 01:38:51;;;;;;;52.20;39.22;;;18.70;99.90;;;;;;4755231;30;20083;-74
2023/09/06 01:41:17;;;;;;;47.85;37.40;;;18.60;99.90;;;;;;4755307;30;20535;-74
2023/09/06 01:43:43;;;;;;;48.30;36.67;;;18.50;99.90;;;;;;4755229;30;20509;-74
2023/09/06 01:46:08;;;;;;;47.47;36.72;;;18.50;99.90;;;;;;4755049;30;20413;-73
2023/09/06 01:48:36;;;;;;;46.75;36.80;;;18.50;99.90;;;;;;4755249;30;20051;-73
2023/09/06 01:51:03;;;;;;;45.00;34.88;;;18.50;99.90;;;;;;4755056;30;20124;-73
2023/09/06 01:53:32;;;;;;;46.40;34.08;;;18.40;99.90;;;;;;4755013;30;20060;-74
2023/09/06 01:55:58;;;;;;;45.22;35.10;;;18.30;99.90;;;;;;4754837;30;20054;-74
2023/09/06 01:58:24;;;;;;;47.85;37.00;;;18.30;99.90;;;;;;4755101;30;20052;-73
2023/09/06 02:00:49;;;;;;;42.97;35.08;;;18.20;99.90;;;;;;4754909;30;20130;-74
2023/09/06 02:03:16;;;;;;;40.42;32.47;;;18.10;99.90;;;;;;4754809;30;20060;-74
2023/09/06 02:05:42;;;;;;;44.92;34.90;;;18.10;99.90;;;;;;4754877;30;20048;-74
2023/09/06 02:08:08;;;;;;;44.15;34.53;;;18.00;99.90;;;;;;4770863;30;20138;-74
2023/09/06 02:10:34;;;;;;;46.33;36.50;;;18.00;99.90;;;;;;4754316;30;20201;-74
2023/09/06 02:13:00;;;;;;;47.75;36.90;;;18.00;99.90;;;;;;4770618;30;20080;-74
2023/09/06 02:15:26;;;;;;;46.95;36.72;;;18.00;99.90;;;;;;4754929;30;20052;-74
2023/09/06 02:17:52;;;;;;;45.10;35.08;;;17.90;99.90;;;;;;4770737;30;20047;-74
2023/09/06 02:20:20;;;;;;;51.00;37.78;;;17.90;99.90;;;;;;4754705;30;20169;-74
2023/09/06 02:22:48;;;;;;;45.72;36.08;;;17.90;99.90;;;;;;4754672;30;20063;-74
2023/09/06 02:25:16;;;;;;;49.42;36.88;;;17.80;99.90;;;;;;4754795;30;20109;-74
2023/09/06 02:27:41;;;;;;;51.33;38.60;;;17.80;99.90;;;;;;4770559;30;20059;-74
2023/09/06 02:30:08;;;;;;;48.55;37.97;;;17.80;99.90;;;;;;4770451;30;20066;-74
2023/09/06 02:32:34;;;;;;;50.33;37.72;;;17.80;99.90;;;;;;4754728;30;20412;-74
2023/09/06 02:35:01;;;;;;;47.10;35.72;;;17.70;99.90;;;;;;4754401;30;20504;-73
2023/09/06 02:37:27;;;;;;;46.70;37.92;;;17.70;99.90;;;;;;4754666;30;20052;-74
2023/09/06 02:39:52;;;;;;;51.95;39.17;;;17.70;99.90;;;;;;4754666;30;20392;-73
2023/09/06 02:42:22;;;;;;;53.35;41.45;;;17.70;99.90;;;;;;4754593;30;20481;-74
2023/09/06 02:44:51;;;;;;;50.15;38.60;;;17.70;99.90;;;;;;4754778;30;20060;-73
2023/09/06 02:47:17;;;;;;;50.58;37.35;;;17.70;99.90;;;;;;4754660;30;20047;-73
2023/09/06 02:49:45;;;;;;;52.13;39.55;;;17.70;99.90;;;;;;4754228;30;20078;-73
2023/09/06 02:52:28;;;;;;;43.95;34.13;;;17.70;99.90;;;;;;4754293;30;20058;-73
2023/09/06 02:54:57;;;;;;;51.38;38.65;;;17.60;99.90;;;;;;4754438;30;20390;-73
2023/09/06 02:57:25;;;;;;;41.22;34.63;;;17.60;99.90;;;;;;4754362;30;20140;-74
2023/09/06 02:59:51;;;;;;;47.85;34.85;;;17.60;99.90;;;;;;4754318;30;20082;-74
2023/09/06 03:02:22;;;;;;;46.22;36.63;;;17.60;99.90;;;;;;4754250;30;20473;-74
2023/09/06 03:04:51;;;;;;;47.38;36.45;;;17.50;99.90;;;;;;4754452;30;20059;-74
2023/09/06 03:07:19;;;;;;;43.17;32.63;;;17.50;99.90;;;;;;4754104;30;20122;-74
2023/09/06 03:09:45;;;;;;;41.90;34.70;;;17.50;99.90;;;;;;4769949;30;20591;-74
2023/09/06 03:12:14;;;;;;;43.78;34.90;;;17.50;99.90;;;;;;4754176;30;20048;-74
2023/09/06 03:14:44;;;;;;;46.78;34.90;;;17.50;99.90;;;;;;4770285;30;20058;-73
2023/09/06 03:17:11;;;;;;;45.67;34.60;;;17.50;99.90;;;;;;4770237;30;20082;-74
2023/09/06 03:19:40;;;;;;;44.17;34.13;;;17.50;99.90;;;;;;4754150;30;20409;-73
2023/09/06 03:22:09;;;;;;;46.17;35.22;;;17.40;99.90;;;;;;4754095;30;20051;-73
2023/09/06 03:24:36;;;;;;;42.92;34.88;;;17.40;99.90;;;;;;4754398;30;20055;-74
2023/09/06 03:27:07;;;;;;;40.70;31.67;;;17.30;99.90;;;;;;4757106;30;20504;-73
2023/09/06 03:29:36;;;;;;;40.72;32.88;;;17.40;99.90;;;;;;4773275;30;20048;-73
2023/09/06 03:32:04;;;;;;;41.38;31.88;;;17.30;99.90;;;;;;4757253;30;20090;-74
2023/09/06 03:34:30;;;;;;;37.47;30.02;;;17.30;99.90;;;;;;4757539;30;20051;-74
2023/09/06 03:36:57;;;;;;;39.72;30.40;;;17.30;99.90;;;;;;4757292;30;20093;-74
2023/09/06 03:39:28;;;;;;;38.33;30.17;;;17.20;99.90;;;;;;4757387;30;20123;-73
2023/09/06 03:42:00;;;;;;;38.20;31.27;;;17.20;99.90;;;;;;4773224;30;20055;-74
2023/09/06 03:44:27;;;;;;;36.58;29.23;;;17.20;99.90;;;;;;4773342;30;20102;-74
2023/09/06 03:46:56;;;;;;;40.50;31.48;;;17.20;99.90;;;;;;4757083;30;20059;-73
2023/09/06 03:49:23;;;;;;;40.25;30.77;;;17.10;99.90;;;;;;4757076;30;20159;-73
2023/09/06 03:51:50;;;;;;;38.30;29.40;;;17.10;99.90;;;;;;4772928;30;20048;-74
2023/09/06 03:54:18;;;;;;;39.13;29.77;;;17.10;99.90;;;;;;4756761;30;20056;-73
2023/09/06 03:56:44;;;;;;;36.40;29.50;;;17.10;99.90;;;;;;4756995;30;20564;-73
2023/09/06 03:59:11;;;;;;;37.22;29.42;;;17.10;99.90;;;;;;4772720;30;20529;-74
2023/09/06 04:01:37;;;;;;;36.88;28.95;;;17.10;99.90;;;;;;4756781;30;20139;-74
2023/09/06 04:04:04;;;;;;;42.90;28.90;;;17.10;99.90;;;;;;4757048;30;20130;-74
2023/09/06 04:06:30;;;;;;;38.10;28.90;;;17.10;99.90;;;;;;4772768;30;20577;-73
2023/09/06 04:08:55;;;;;;;38.55;28.50;;;17.10;99.90;;;;;;4756502;30;20060;-74
2023/09/06 04:11:23;;;;;;;33.03;27.65;;;17.10;99.90;;;;;;4756416;30;20070;-74
2023/09/06 04:13:51;;;;;;;36.30;27.88;;;17.10;99.90;;;;;;4772692;30;20094;-74
2023/09/06 04:16:19;;;;;;;38.45;29.02;;;17.10;99.90;;;;;;4772839;30;20511;-74
2023/09/06 04:18:45;;;;;;;37.38;28.15;;;17.10;99.90;;;;;;4756546;30;20048;-74
2023/09/06 04:21:10;;;;;;;36.25;29.13;;;17.10;99.90;;;;;;4756358;30;20051;-74
2023/09/06 04:23:40;;;;;;;37.40;29.50;;;17.20;99.90;;;;;;4772327;30;20130;-74
2023/09/06 04:26:06;;;;;;;33.50;27.60;;;17.20;99.90;;;;;;4772269;30;20546;-73
2023/09/06 04:28:31;;;;;;;35.00;28.25;;;17.10;99.90;;;;;;4772431;30;20056;-74
2023/09/06 04:30:58;;;;;;;34.53;27.63;;;17.10;99.90;;;;;;4756250;30;20060;-74
2023/09/06 04:33:29;;;;;;;34.80;26.63;;;17.10;99.90;;;;;;4772354;30;20485;-74
2023/09/06 04:35:55;;;;;;;32.90;26.23;;;17.10;99.90;;;;;;4756081;30;20044;-74
2023/09/06 04:38:23;;;;;;;32.50;26.95;;;17.10;99.90;;;;;;4771444;30;20121;-74
2023/09/06 04:40:51;;;;;;;32.47;24.95;;;17.10;99.90;;;;;;4755885;30;20492;-74
2023/09/06 04:43:18;;;;;;;31.35;26.17;;;17.10;99.90;;;;;;4756086;30;20098;-73
2023/09/06 04:45:44;;;;;;;34.08;24.98;;;17.10;99.90;;;;;;4756037;30;20051;-73
2023/09/06 04:48:12;;;;;;;34.45;25.50;;;17.10;99.90;;;;;;4755460;30;20508;-73
2023/09/06 04:50:40;;;;;;;33.40;24.98;;;17.10;99.90;;;;;;4755457;30;20063;-73
2023/09/06 04:53:10;;;;;;;33.00;24.83;;;17.10;99.90;;;;;;4756011;30;20408;-74
2023/09/06 04:55:36;;;;;;;31.63;24.67;;;17.10;99.90;;;;;;4755973;30;20063;-73
2023/09/06 04:58:03;;;;;;;28.70;22.95;;;17.10;99.90;;;;;;4755867;30;20066;-73
2023/09/06 05:00:35;;;;;;;29.33;24.77;;;17.00;99.90;;;;;;4771831;30;20060;-73
2023/09/06 05:03:01;;;;;;;34.58;24.33;;;17.00;99.90;;;;;;4771906;30;20135;-74
2023/09/06 05:05:27;;;;;;;29.30;22.27;;;17.00;99.90;;;;;;4755487;30;20126;-74
2023/09/06 05:07:53;;;;;;;28.77;24.30;;;17.00;99.90;;;;;;4755017;30;20079;-74
2023/09/06 05:10:21;;;;;;;29.17;22.17;;;17.00;99.90;;;;;;4755265;30;20060;-74
2023/09/06 05:12:47;;;;;;;27.45;23.45;;;17.00;99.90;;;;;;4755467;30;20565;-74
2023/09/06 05:15:13;;;;;;;27.17;22.52;;;16.90;99.90;;;;;;4755710;30;20052;-74
2023/09/06 05:17:40;;;;;;;24.20;20.85;;;16.90;99.90;;;;;;4771554;30;20055;-73
2023/09/06 05:20:31;;;;;;;25.23;20.83;;;16.90;99.90;;;;;;4755601;30;20524;-74
2023/09/06 05:23:08;;;;;;;24.73;20.92;;;16.90;99.90;;;;;;4755305;30;20044;-74
2023/09/06 05:25:34;;;;;;;23.08;20.48;;;16.90;99.90;;;;;;4755573;30;20087;-74
2023/09/06 05:28:01;;;;;;;27.65;21.52;;;16.90;99.90;;;;;;4755137;30;20047;-74
2023/09/06 05:30:28;;;;;;;24.58;20.30;;;17.00;99.90;;;;;;4754978;30;20135;-74
2023/09/06 05:32:55;;;;;;;26.13;20.92;;;16.90;99.90;;;;;;4755046;30;20144;-74
2023/09/06 05:35:21;;;;;;;27.92;22.42;;;17.00;99.90;;;;;;4755137;30;20047;-74
2023/09/06 05:37:47;;;;;;;23.63;20.02;;;17.00;99.90;;;;;;4755422;30;20055;-73
2023/09/06 05:40:13;;;;;;;25.85;21.15;;;17.10;99.90;;;;;;4754830;30;20062;-74
2023/09/06 05:42:40;;;;;;;28.35;21.27;;;17.10;99.90;;;;;;4755143;30;20492;-74
2023/09/06 05:45:10;;;;;;;24.10;20.17;;;17.20;99.90;;;;;;4755143;30;20059;-74
2023/09/06 05:47:36;;;;;;;25.35;19.65;;;17.20;99.90;;;;;;4770629;30;20528;-74
2023/09/06 05:50:02;;;;;;;25.48;20.25;;;17.30;99.90;;;;;;4754752;30;20047;-73
2023/09/06 05:52:28;;;;;;;23.85;20.42;;;17.40;99.90;;;;;;4754985;30;20066;-73
2023/09/06 05:55:04;;;;;;;25.30;20.02;;;17.40;99.90;;;;;;4754739;30;20104;-73
2023/09/06 05:57:31;;;;;;;21.95;18.25;;;17.50;99.90;;;;;;4770990;30;20052;-74
2023/09/06 05:59:57;;;;;;;24.75;19.70;;;17.60;99.90;;;;;;4754655;30;20515;-74
2023/09/06 06:02:24;;;;;;;24.85;19.35;;;17.70;99.90;;;;;;4758916;30;20509;-73
2023/09/06 06:04:50;;;;;;;22.27;19.35;;;17.80;99.90;;;;;;4753062;30;20071;-73
2023/09/06 06:07:17;;;;;;;20.65;18.00;;;17.90;99.90;;;;;;4737101;30;20133;-74
2023/09/06 06:09:43;;;;;;;20.27;17.48;;;17.90;99.90;;;;;;4736813;30;20068;-73
2023/09/06 06:12:10;;;;;;;20.90;16.42;;;18.00;99.90;;;;;;4736936;30;20126;-73
2023/09/06 06:14:37;;;;;;;20.42;16.88;;;18.10;99.90;;;;;;4752900;30;20051;-73
2023/09/06 06:17:06;;;;;;;17.85;15.77;;;18.20;99.90;;;;;;4737011;30;20628;-74
2023/09/06 06:19:38;;;;;;;18.55;16.02;;;18.30;99.90;;;;;;4736941;30;20055;-73
2023/09/06 06:22:07;;;;;;;18.60;15.30;;;18.40;99.90;;;;;;4737094;30;20157;-73
2023/09/06 06:24:34;;;;;;;18.80;15.32;;;18.50;99.90;;;;;;4752892;30;20052;-73
2023/09/06 06:26:59;;;;;;;18.48;15.68;;;18.60;99.90;;;;;;4734547;30;20109;-72
2023/09/06 06:29:25;;;;;;;18.40;14.77;;;18.70;99.90;;;;;;4728272;30;20045;-73
2023/09/06 06:31:52;;;;;;;18.13;15.10;;;18.80;99.90;;;;;;4719448;30;20060;-73
2023/09/06 06:34:20;;;;;;;18.77;14.07;;;18.90;99.90;;;;;;4734755;30;20456;-73
2023/09/06 06:36:46;;;;;;;18.75;14.10;;;19.00;99.90;;;;;;4719055;30;20110;-73
2023/09/06 06:39:13;;;;;;;17.67;13.52;;;19.10;99.90;;;;;;4719390;30;20048;-73
2023/09/06 06:41:40;;;;;;;16.33;12.98;;;19.20;99.90;;;;;;4719097;30;20056;-73
2023/09/06 06:44:09;;;;;;;16.10;12.45;;;19.30;99.90;;;;;;4719377;30;20056;-73
2023/09/06 06:46:37;;;;;;;14.85;12.55;;;19.40;99.90;;;;;;4719009;30;20087;-73
2023/09/06 06:49:09;;;;;;;14.82;12.98;;;19.60;99.90;;;;;;4734997;30;20114;-73
2023/09/06 06:51:40;;;;;;;15.50;11.80;;;19.60;99.90;;;;;;4718925;30;20053;-73
2023/09/06 06:54:08;;;;;;;14.95;11.90;;;19.70;99.90;;;;;;4718949;30;20057;-73
2023/09/06 06:56:35;;;;;;;13.98;10.93;;;19.80;99.90;;;;;;4719106;30;20065;-73
2023/09/06 06:59:02;;;;;;;14.05;10.65;;;19.90;99.90;;;;;;4719025;30;20063;-74
2023/09/06 07:01:28;;;;;;;13.05;10.05;;;20.00;99.90;;;;;;4721339;30;20414;-74
2023/09/06 07:03:57;;;;;;;14.95;10.40;;;20.10;99.90;;;;;;4722396;30;20063;-74
2023/09/06 07:06:26;;;;;;;;;;;20.10;99.90;;;;;;4722476;30;20070;-73
2023/09/06 07:08:55;;;;;;;13.70;10.10;;;20.20;99.90;;;;;;4722330;30;19981;-73
2023/09/06 07:11:21;;;;;;;13.07;9.63;;;20.30;99.90;;;;;;4721982;30;20135;-74
2023/09/06 07:13:47;;;;;;;12.55;10.02;;;20.40;99.90;;;;;;4722045;30;20143;-73
2023/09/06 07:16:15;;;;;;;13.18;9.95;;;20.50;99.90;;;;;;4721958;30;20102;-73
2023/09/06 07:18:41;;;;;;;17.52;10.30;;;20.50;99.90;;;;;;4722093;30;20071;-74
2023/09/06 07:21:07;;;;;;;12.57;8.63;;;20.50;99.90;;;;;;4721879;30;20060;-73
2023/09/06 07:23:33;;;;;;;12.93;8.68;;;20.60;99.90;;;;;;4721916;30;20057;-73
2023/09/06 07:25:59;;;;;;;16.83;9.48;;;20.70;99.90;;;;;;4721938;30;20053;-73
2023/09/06 07:28:25;;;;;;;12.55;8.18;;;20.80;99.90;;;;;;4721841;30;20091;-73
2023/09/06 07:30:50;;;;;;;13.55;8.73;;;20.90;99.90;;;;;;4721760;30;20080;-73
2023/09/06 07:33:16;;;;;;;15.82;9.13;;;20.90;99.90;;;;;;4722096;30;20414;-75
2023/09/06 07:35:42;;;;;;;12.05;8.23;;;21.00;99.90;;;;;;4721703;30;20056;-73
2023/09/06 07:38:08;;;;;;;11.00;8.13;;;21.10;99.90;;;;;;4721987;30;20055;-73
2023/09/06 07:40:34;;;;;;;11.10;7.65;;;21.20;99.90;;;;;;4737449;30;20076;-74
2023/09/06 07:43:00;;;;;;;11.38;7.53;;;21.20;99.90;;;;;;4721547;30;20079;-74
2023/09/06 07:45:25;;;;;;;11.75;8.10;;;21.40;99.90;;;;;;4721577;30;20087;-73
2023/09/06 07:47:51;;;;;;;8.65;6.65;;;21.40;99.90;;;;;;4721878;30;20049;-74
2023/09/06 07:50:17;;;;;;;7.78;6.40;;;21.50;99.90;;;;;;4737421;30;20080;-74
2023/09/06 07:52:43;;;;;;;8.73;6.28;;;21.60;99.90;;;;;;4737398;30;20049;-72
2023/09/06 07:55:09;;;;;;;13.05;6.05;;;21.70;99.90;;;;;;4721445;30;20059;-74
2023/09/06 07:57:34;;;;;;;12.85;6.28;;;21.80;99.90;;;;;;4721216;30;20052;-74
2023/09/06 08:00:00;;;;;;;10.13;5.30;;;21.80;99.90;;;;;;4721310;30;20560;-73
2023/09/06 08:02:26;;;;;;;7.43;5.32;;;21.90;99.90;;;;;;4726566;30;20482;-73
2023/09/06 08:04:51;;;;;;;9.32;5.47;;;22.00;99.90;;;;;;4747575;30;20130;-74
2023/09/06 08:07:17;;;;;;;8.13;4.78;;;22.10;99.90;;;;;;4721155;30;20052;-73
2023/09/06 08:09:43;;;;;;;12.25;5.40;;;22.10;99.90;;;;;;4721159;30;20103;-73
2023/09/06 08:12:09;;;;;;;9.02;4.45;;;22.20;99.90;;;;;;4715445;30;20091;-73
2023/09/06 08:14:35;;;;;;;9.68;5.53;;;22.20;99.90;;;;;;4729168;30;20127;-73
2023/09/06 08:17:08;;;;;;;7.35;4.60;;;22.20;99.90;;;;;;4737858;30;20473;-72
2023/09/06 08:19:33;;;;;;;7.65;5.20;;;22.30;99.90;;;;;;4738532;30;20062;-72
2023/09/06 08:21:59;;;;;;;10.27;5.40;;;22.40;99.90;;;;;;4753778;30;20056;-76
2023/09/06 08:24:25;;;;;;;6.13;4.55;;;22.40;99.90;;;;;;4738466;30;20415;-73
2023/09/06 08:26:50;;;;;;;8.52;5.18;;;22.50;99.90;;;;;;4754456;30;20098;-73
2023/09/06 08:29:16;;;;;;;9.38;5.00;;;22.50;99.90;;;;;;4737923;30;20048;-73
2023/09/06 08:31:42;;;;;;;8.95;5.25;;;22.60;99.90;;;;;;4738395;30;20055;-73
2023/09/06 08:34:09;;;;;;;8.70;5.20;;;22.70;99.90;;;;;;4738235;30;20052;-73
2023/09/06 08:36:35;;;;;;;7.03;4.78;;;22.70;99.90;;;;;;4738203;30;20064;-74
2023/09/06 08:39:01;;;;;;;8.00;4.97;;;22.80;99.90;;;;;;4738197;30;20051;-75
2023/09/06 08:41:28;;;;;;;6.68;4.40;;;22.90;99.90;;;;;;4738101;30;20114;-74
2023/09/06 08:43:54;;;;;;;8.35;4.50;;;22.90;99.90;;;;;;4738294;30;20075;-74
2023/09/06 08:46:26;;;;;;;7.97;4.68;;;23.10;99.90;;;;;;4737636;30;20493;-74
2023/09/06 08:48:55;;;;;;;6.03;4.65;;;23.10;99.90;;;;;;4738171;30;20533;-74
2023/09/06 08:51:22;;;;;;;9.52;4.70;;;23.20;99.90;;;;;;4754135;30;20044;-74
2023/09/06 08:53:48;;;;;;;7.55;4.50;;;23.30;99.90;;;;;;4737921;30;20060;-74
2023/09/06 08:56:17;;;;;;;9.43;5.13;;;23.30;99.90;;;;;;4737981;30;20060;-74
2023/09/06 08:58:44;;;;;;;6.50;4.57;;;23.40;99.90;;;;;;4738021;30;20085;-74
2023/09/06 09:01:09;;;;;;;8.27;4.28;;;23.50;99.90;;;;;;4738116;30;20079;-74
2023/09/06 09:03:35;;;;;;;7.80;5.40;;;23.50;99.90;;;;;;4753964;30;20110;-74
2023/09/06 09:06:06;;;;;;;7.10;5.13;;;23.60;99.90;;;;;;4753850;30;20094;-74
2023/09/06 09:08:33;;;;;;;7.68;5.07;;;23.60;99.90;;;;;;4737878;30;20071;-74
2023/09/06 09:11:18;;;;;;;8.23;5.18;;;23.80;99.90;;;;;;4729529;30;20061;-74
2023/09/06 09:13:45;;;;;;;9.70;6.05;;;23.80;99.90;;;;;;4737610;30;20074;-73
2023/09/06 09:16:17;;;;;;;6.65;4.47;;;23.90;99.90;;;;;;4737757;30;20055;-73
2023/09/06 09:18:44;;;;;;;7.15;4.57;;;24.00;99.90;;;;;;4730707;30;20106;-73
2023/09/06 09:21:13;;;;;;;12.70;4.63;;;24.00;99.90;;;;;;4747909;30;20052;-74
2023/09/06 09:23:47;;;;;;;8.57;4.53;;;24.10;99.90;;;;;;4737096;30;20048;-72
2023/09/06 09:26:13;;;;;;;8.60;4.13;;;24.20;99.90;;;;;;4737428;30;20052;-73
2023/09/06 09:28:42;;;;;;;7.85;4.57;;;24.20;99.90;;;;;;4736856;30;20075;-73
2023/09/06 09:31:15;;;;;;;6.97;4.50;;;24.30;99.90;;;;;;4736792;30;20088;-73
2023/09/06 09:33:52;;;;;;;7.35;4.10;;;24.40;99.90;;;;;;4737783;30;20075;-73
2023/09/06 09:36:18;;;;;;;10.98;4.43;;;24.50;99.90;;;;;;4737541;30;20055;-74
2023/09/06 09:38:51;;;;;;;7.15;3.95;;;24.60;99.90;;;;;;4737491;30;20101;-73
2023/09/06 09:41:17;;;;;;;6.40;4.30;;;24.60;99.90;;;;;;4737415;30;20067;-73
2023/09/06 09:43:42;;;;;;;8.10;3.97;;;24.80;99.90;;;;;;4737253;30;20061;-73
2023/09/06 09:46:12;;;;;;;6.03;3.88;;;24.80;99.90;;;;;;4753130;30;20055;-73
2023/09/06 09:48:41;;;;;;;6.78;3.67;;;24.90;99.90;;;;;;4737669;30;20052;-73
2023/09/06 09:51:16;;;;;;;6.63;3.47;;;25.00;99.90;;;;;;4752194;30;20048;-73
2023/09/06 09:53:42;;;;;;;7.28;3.72;;;25.10;99.90;;;;;;4753020;30;20056;-74
2023/09/06 09:56:08;;;;;;;5.75;3.42;;;25.20;99.90;;;;;;4736973;30;20056;-73
2023/09/06 09:58:35;;;;;;;7.63;3.90;;;25.30;99.90;;;;;;4737072;30;20063;-76
2023/09/06 10:01:02;;;;;;;7.13;3.78;;;25.40;99.90;;;;;;4752764;30;20059;-75
2023/09/06 10:03:29;;;;;;;6.80;3.38;;;25.40;99.90;;;;;;4737005;30;20060;-75
2023/09/06 10:05:55;;;;;;;5.72;3.42;;;25.40;99.90;;;;;;4752960;30;20063;-74
2023/09/06 10:08:22;;;;;;;13.20;4.07;;;25.40;99.90;;;;;;4737393;30;20105;-75
2023/09/06 10:10:49;;;;;;;8.23;3.70;;;25.60;99.90;;;;;;4755493;30;20528;-72
2023/09/06 10:13:15;;;;;;;5.97;3.35;;;25.60;99.90;;;;;;4728099;30;20513;-77
2023/09/06 10:15:43;;;;;;;6.07;3.28;;;25.70;99.90;;;;;;4726534;30;20171;-75
2023/09/06 10:18:09;;;;;;;4.97;3.30;;;25.80;99.90;;;;;;4721403;30;20060;-75
2023/09/06 10:20:37;;;;;;;6.53;3.38;;;25.80;99.90;;;;;;4759717;30;20044;-76
2023/09/06 10:23:17;;;;;;;5.07;3.13;;;25.90;99.90;;;;;;4739635;30;20476;-76
2023/09/06 10:25:49;;;;;;;5.13;3.20;;;26.10;99.90;;;;;;4725928;30;20493;-78
2023/09/06 10:28:22;;;;;;;7.75;3.28;;;26.20;99.90;;;;;;4719538;30;20052;-77
2023/09/06 10:30:57;;;;;;;6.68;3.53;;;26.30;99.90;;;;;;4727628;30;20187;-77
2023/09/06 10:33:47;;;;;;;6.13;3.33;;;26.30;99.90;;;;;;4719025;30;20529;-76
2023/09/06 10:36:14;;;;;;;6.78;2.95;;;26.40;99.90;;;;;;4730049;30;20052;-76
2023/09/06 10:38:52;;;;;;;4.65;3.03;;;26.60;99.90;;;;;;4722746;30;20088;-76
2023/09/06 10:41:25;;;;;;;5.18;2.65;;;26.60;99.90;;;;;;4738019;30;20545;-77
2023/09/06 10:44:03;;;;;;;4.95;3.03;;;26.70;99.90;;;;;;4735304;30;20111;-77
2023/09/06 10:46:29;;;;;;;6.78;3.33;;;26.90;99.90;;;;;;4729932;30;20045;-77
2023/09/06 10:49:19;;;;;;;8.73;3.05;;;27.00;99.90;;;;;;4722376;30;20135;-78
2023/09/06 10:52:04;;;;;;;7.20;2.95;;;27.00;99.90;;;;;;4722489;30;20056;-76
2023/09/06 10:54:48;;;;;;;5.78;2.88;;;27.20;99.90;;;;;;4734421;30;20043;-77
2023/09/06 10:57:14;;;;;;;9.75;3.20;;;27.30;99.90;;;;;;4729199;30;20085;-74
2023/09/06 10:59:57;;;;;;;4.80;2.83;;;27.40;99.90;;;;;;4756097;30;20044;-77
2023/09/06 11:02:23;;;;;;;4.40;2.75;;;27.50;99.90;;;;;;4740117;30;20063;-73
2023/09/06 11:05:09;;;;;;;4.53;2.95;;;27.60;99.90;;;;;;4739761;30;20409;-75
2023/09/06 11:07:39;;;;;;;5.45;2.60;;;27.60;99.90;;;;;;4739256;30;20185;-74
2023/09/06 11:10:06;;;;;;;8.15;3.47;;;27.80;99.90;;;;;;4739571;30;20056;-75
2023/09/06 11:12:32;;;;;;;4.43;2.70;;;27.80;99.90;;;;;;4739611;30;20502;-74
2023/09/06 11:14:58;;;;;;;4.22;2.60;;;27.90;99.90;;;;;;4755597;30;20036;-73
2023/09/06 11:17:24;;;;;;;4.80;2.75;;;27.90;99.90;;;;;;4739793;30;20052;-73
2023/09/06 11:19:50;;;;;;;5.15;2.80;;;28.00;99.90;;;;;;4755316;30;20047;-76
2023/09/06 11:22:16;;;;;;;5.40;3.10;;;28.00;99.90;;;;;;4739714;30;20060;-74
2023/09/06 11:24:42;;;;;;;5.68;2.70;;;28.00;99.90;;;;;;4739788;30;20056;-74
2023/09/06 11:27:22;;;;;;;5.70;3.10;;;28.10;99.90;;;;;;4739427;30;20058;-75
2023/09/06 11:30:10;;;;;;;5.93;2.50;;;28.20;99.90;;;;;;4739522;30;20137;-74
2023/09/06 11:32:35;;;;;;;4.25;2.30;;;28.20;99.90;;;;;;4739313;30;20421;-76
2023/09/06 11:35:03;;;;;;;5.13;2.35;;;28.30;99.90;;;;;;4739185;30;20493;-76
2023/09/06 11:37:30;;;;;;;4.53;2.75;;;28.40;99.90;;;;;;4739478;30;20060;-76
2023/09/06 11:39:57;;;;;;;6.18;2.60;;;28.50;99.90;;;;;;4739093;30;20109;-75
2023/09/06 11:42:24;;;;;;;7.93;2.50;;;28.50;99.90;;;;;;4739236;30;20509;-76
2023/09/06 11:44:53;;;;;;;4.93;2.72;;;28.50;99.90;;;;;;4754889;30;20509;-75
2023/09/06 11:47:23;;;;;;;4.55;2.80;;;28.50;99.90;;;;;;4738777;30;20055;-76
2023/09/06 11:49:49;;;;;;;4.38;2.50;;;28.50;99.90;;;;;;4754855;30;20052;-76
2023/09/06 11:52:18;;;;;;;8.02;2.65;;;28.60;99.90;;;;;;4739035;30;20169;-76
2023/09/06 11:54:47;;;;;;;4.53;2.47;;;28.70;99.90;;;;;;4739194;30;20074;-76
2023/09/06 11:57:18;;;;;;;4.45;2.10;;;28.70;99.90;;;;;;4738904;30;20052;-76
2023/09/06 11:59:43;;;;;;;5.95;2.60;;;28.70;99.90;;;;;;4738900;30;20056;-77
2023/09/06 12:02:13;;;;;;;7.13;2.40;;;28.80;99.90;;;;;;4739067;30;20067;-78
2023/09/06 12:04:40;;;;;;;3.85;2.55;;;28.80;99.90;;;;;;4739001;30;20092;-75
2023/09/06 12:07:07;;;;;;;6.15;2.70;;;28.80;99.90;;;;;;4738993;30;20149;-75
2023/09/06 12:09:36;;;;;;;3.25;2.00;;;28.80;99.90;;;;;;4738663;30;20390;-75
2023/09/06 12:12:06;;;;;;;5.05;2.78;;;28.90;99.90;;;;;;4738815;30;20509;-77
2023/09/06 12:14:32;;;;;;;6.82;2.50;;;28.80;99.90;;;;;;4754698;30;20452;-76
2023/09/06 12:16:58;;;;;;;3.63;2.30;;;28.90;99.90;;;;;;4738722;30;20497;-76
2023/09/06 12:19:26;;;;;;;3.88;2.30;;;28.90;99.90;;;;;;4754532;30;20107;-76
2023/09/06 12:21:52;;;;;;;5.20;2.50;;;28.90;99.90;;;;;;4738649;30;20052;-77
2023/09/06 12:24:18;;;;;;;4.63;2.47;;;28.90;99.90;;;;;;4738564;30;20048;-76
2023/09/06 12:26:44;;;;;;;5.70;2.30;;;29.00;99.90;;;;;;4738827;30;20092;-76
2023/09/06 12:29:09;;;;;;;5.40;2.95;;;28.90;99.90;;;;;;4738438;30;20432;-76
2023/09/06 12:31:35;;;;;;;5.03;2.80;;;29.00;99.90;;;;;;4754390;30;20052;-77
2023/09/06 12:34:03;;;;;;;4.22;2.53;;;28.90;99.90;;;;;;4738427;30;20062;-76
2023/09/06 12:36:29;;;;;;;6.60;2.65;;;29.10;99.90;;;;;;4738678;30;20055;-76
2023/09/06 12:38:54;;;;;;;3.78;2.50;;;28.90;99.90;;;;;;4738273;30;20408;-77
2023/09/06 12:41:20;;;;;;;4.95;2.08;;;29.00;99.90;;;;;;4738435;30;20059;-78